PADK/ADK METAR and TAF weather

Enter ICAO airport designator
Station Type Date Time Source
PADK METAR 2022/12/02 22:56 UTC NOAA

PADK 022256Z AUTO 00000KT OVC004 08/08 A2989 RMK AO2 CIG 003V007 SLP123 T00780078 PWINO $


Station Type Date Time Source
PADK Decoded METAR 2022/12/02 22:56 UTC NOAA

Adak Island, Adak Airport, AK, United States (PADK) 51-52-40N 176-38-45W 4M
Dec 02, 2022 - 05:56 PM EST / 2022.12.02 2256 UTC
Wind: Calm:0
Sky conditions: overcast
Temperature: 46.0 F (7.8 C)
Dew Point: 46.0 F (7.8 C)
Relative Humidity: 100%
Pressure (altimeter): 29.89 in. Hg (1012 hPa)
ob: PADK 022256Z AUTO 00000KT OVC004 08/08 A2989 RMK AO2 CIG 003V007 SLP123 T00780078 PWINO
cycle: 23

Station Type Date Time Source
PADK TAF 2007/04/07 12:54 UTC NOAA

TAF PADK 070404 33010G15KT 9999 FEW025 BKN030 OVC050 QNH2900INS T03/00Z TM01/18Z COR 1205 LAST NO
AMDS AFT 0712;

Example: see airport list